sensor_id;sensor_type;location;lat;lon;timestamp;P1;durP1;ratioP1;P2;durP2;ratioP2
15474;SDS011;7839;50.462;9.678;2023-10-13T00:01:38;5.65;;;4.88;;
15474;SDS011;7839;50.462;9.678;2023-10-13T00:08:18;5.60;;;4.60;;
15474;SDS011;7839;50.462;9.678;2023-10-13T00:15:00;5.97;;;4.80;;
15474;SDS011;7839;50.462;9.678;2023-10-13T00:21:43;6.63;;;5.13;;
15474;SDS011;7839;50.462;9.678;2023-10-13T00:28:25;6.17;;;4.67;;
15474;SDS011;7839;50.462;9.678;2023-10-13T00:35:06;7.73;;;4.27;;
15474;SDS011;7839;50.462;9.678;2023-10-13T00:41:47;4.60;;;4.20;;
15474;SDS011;7839;50.462;9.678;2023-10-13T00:48:32;4.10;;;3.67;;
15474;SDS011;7839;50.462;9.678;2023-10-13T00:55:13;6.33;;;4.50;;
15474;SDS011;7839;50.462;9.678;2023-10-13T01:01:54;6.27;;;3.97;;
15474;SDS011;7839;50.462;9.678;2023-10-13T01:08:35;6.13;;;4.25;;
15474;SDS011;7839;50.462;9.678;2023-10-13T01:15:18;3.90;;;3.30;;
15474;SDS011;7839;50.462;9.678;2023-10-13T01:22:01;4.07;;;3.60;;
15474;SDS011;7839;50.462;9.678;2023-10-13T01:28:44;4.30;;;3.80;;
15474;SDS011;7839;50.462;9.678;2023-10-13T01:35:26;5.47;;;3.60;;
15474;SDS011;7839;50.462;9.678;2023-10-13T01:42:15;3.73;;;3.40;;
15474;SDS011;7839;50.462;9.678;2023-10-13T01:49:02;3.47;;;3.17;;
15474;SDS011;7839;50.462;9.678;2023-10-13T01:55:43;4.27;;;3.40;;
15474;SDS011;7839;50.462;9.678;2023-10-13T02:02:23;3.57;;;3.27;;
15474;SDS011;7839;50.462;9.678;2023-10-13T02:09:09;4.10;;;3.33;;
15474;SDS011;7839;50.462;9.678;2023-10-13T02:16:09;4.53;;;3.13;;
15474;SDS011;7839;50.462;9.678;2023-10-13T02:22:49;3.97;;;3.27;;
15474;SDS011;7839;50.462;9.678;2023-10-13T02:29:30;4.30;;;3.07;;
15474;SDS011;7839;50.462;9.678;2023-10-13T02:36:10;3.90;;;3.60;;
15474;SDS011;7839;50.462;9.678;2023-10-13T02:42:52;6.20;;;3.40;;
15474;SDS011;7839;50.462;9.678;2023-10-13T02:49:32;4.43;;;3.47;;
15474;SDS011;7839;50.462;9.678;2023-10-13T02:56:14;3.20;;;2.90;;
15474;SDS011;7839;50.462;9.678;2023-10-13T03:02:54;5.47;;;3.33;;
15474;SDS011;7839;50.462;9.678;2023-10-13T03:09:38;3.90;;;3.20;;
15474;SDS011;7839;50.462;9.678;2023-10-13T03:16:19;4.90;;;3.07;;
15474;SDS011;7839;50.462;9.678;2023-10-13T03:22:59;6.10;;;3.20;;
15474;SDS011;7839;50.462;9.678;2023-10-13T03:29:39;3.27;;;2.83;;
15474;SDS011;7839;50.462;9.678;2023-10-13T03:36:23;3.97;;;3.27;;
15474;SDS011;7839;50.462;9.678;2023-10-13T03:43:29;3.78;;;2.97;;
15474;SDS011;7839;50.462;9.678;2023-10-13T03:50:10;3.03;;;2.80;;
15474;SDS011;7839;50.462;9.678;2023-10-13T03:56:56;4.67;;;3.13;;
15474;SDS011;7839;50.462;9.678;2023-10-13T04:03:36;3.67;;;3.10;;
15474;SDS011;7839;50.462;9.678;2023-10-13T04:10:37;4.33;;;3.17;;
15474;SDS011;7839;50.462;9.678;2023-10-13T04:17:46;5.60;;;2.77;;
15474;SDS011;7839;50.462;9.678;2023-10-13T04:24:28;4.67;;;3.10;;
15474;SDS011;7839;50.462;9.678;2023-10-13T04:31:17;4.77;;;3.13;;
15474;SDS011;7839;50.462;9.678;2023-10-13T04:38:20;4.63;;;3.30;;
15474;SDS011;7839;50.462;9.678;2023-10-13T04:45:00;3.97;;;3.53;;
15474;SDS011;7839;50.462;9.678;2023-10-13T04:51:56;5.63;;;3.10;;
15474;SDS011;7839;50.462;9.678;2023-10-13T04:58:39;3.40;;;3.10;;
15474;SDS011;7839;50.462;9.678;2023-10-13T05:05:42;3.80;;;3.30;;
15474;SDS011;7839;50.462;9.678;2023-10-13T05:12:25;3.80;;;3.10;;
15474;SDS011;7839;50.462;9.678;2023-10-13T05:19:24;5.07;;;3.00;;
15474;SDS011;7839;50.462;9.678;2023-10-13T05:26:23;4.03;;;2.83;;
15474;SDS011;7839;50.462;9.678;2023-10-13T05:33:22;5.17;;;2.70;;
15474;SDS011;7839;50.462;9.678;2023-10-13T05:40:21;5.20;;;2.97;;
15474;SDS011;7839;50.462;9.678;2023-10-13T05:47:19;3.73;;;2.77;;
15474;SDS011;7839;50.462;9.678;2023-10-13T05:54:18;5.63;;;3.13;;
15474;SDS011;7839;50.462;9.678;2023-10-13T06:00:58;4.67;;;2.67;;
15474;SDS011;7839;50.462;9.678;2023-10-13T06:07:57;3.73;;;2.70;;
15474;SDS011;7839;50.462;9.678;2023-10-13T06:14:57;3.03;;;2.70;;
15474;SDS011;7839;50.462;9.678;2023-10-13T06:21:55;2.50;;;2.30;;
15474;SDS011;7839;50.462;9.678;2023-10-13T06:28:54;4.75;;;2.38;;
15474;SDS011;7839;50.462;9.678;2023-10-13T06:35:35;3.47;;;2.70;;
15474;SDS011;7839;50.462;9.678;2023-10-13T06:42:18;2.83;;;2.20;;
15474;SDS011;7839;50.462;9.678;2023-10-13T06:48:59;3.37;;;2.27;;
15474;SDS011;7839;50.462;9.678;2023-10-13T06:55:40;4.03;;;2.60;;
15474;SDS011;7839;50.462;9.678;2023-10-13T07:02:20;4.83;;;2.80;;
15474;SDS011;7839;50.462;9.678;2023-10-13T07:09:03;6.97;;;2.83;;
15474;SDS011;7839;50.462;9.678;2023-10-13T07:15:47;2.83;;;2.63;;
15474;SDS011;7839;50.462;9.678;2023-10-13T07:22:27;4.97;;;2.80;;
15474;SDS011;7839;50.462;9.678;2023-10-13T07:29:11;4.97;;;2.50;;
15474;SDS011;7839;50.462;9.678;2023-10-13T07:36:01;5.15;;;2.90;;
15474;SDS011;7839;50.462;9.678;2023-10-13T07:42:51;4.25;;;2.90;;
15474;SDS011;7839;50.462;9.678;2023-10-13T07:49:32;5.03;;;3.27;;
15474;SDS011;7839;50.462;9.678;2023-10-13T07:56:12;5.38;;;2.88;;
15474;SDS011;7839;50.462;9.678;2023-10-13T08:02:57;5.93;;;2.90;;
15474;SDS011;7839;50.462;9.678;2023-10-13T08:09:47;3.28;;;2.47;;
15474;SDS011;7839;50.462;9.678;2023-10-13T08:16:31;5.03;;;3.13;;
15474;SDS011;7839;50.462;9.678;2023-10-13T08:23:27;3.87;;;2.63;;
15474;SDS011;7839;50.462;9.678;2023-10-13T08:30:27;4.83;;;2.90;;
15474;SDS011;7839;50.462;9.678;2023-10-13T08:37:11;4.37;;;3.13;;
15474;SDS011;7839;50.462;9.678;2023-10-13T08:44:03;4.23;;;3.00;;
15474;SDS011;7839;50.462;9.678;2023-10-13T08:57:31;3.07;;;2.37;;
15474;SDS011;7839;50.462;9.678;2023-10-13T09:04:15;5.30;;;3.00;;
15474;SDS011;7839;50.462;9.678;2023-10-13T09:10:58;5.13;;;2.80;;
15474;SDS011;7839;50.462;9.678;2023-10-13T09:17:50;4.63;;;2.93;;
15474;SDS011;7839;50.462;9.678;2023-10-13T09:24:30;4.50;;;2.90;;
15474;SDS011;7839;50.462;9.678;2023-10-13T09:31:11;6.72;;;3.45;;
15474;SDS011;7839;50.462;9.678;2023-10-13T09:37:53;5.35;;;3.08;;
15474;SDS011;7839;50.462;9.678;2023-10-13T09:44:36;4.57;;;3.37;;
15474;SDS011;7839;50.462;9.678;2023-10-13T09:51:20;8.23;;;3.58;;
15474;SDS011;7839;50.462;9.678;2023-10-13T09:58:03;3.23;;;2.87;;
15474;SDS011;7839;50.462;9.678;2023-10-13T10:04:55;4.97;;;3.53;;
15474;SDS011;7839;50.462;9.678;2023-10-13T10:11:59;3.83;;;3.35;;
15474;SDS011;7839;50.462;9.678;2023-10-13T10:18:41;6.57;;;3.58;;
15474;SDS011;7839;50.462;9.678;2023-10-13T10:25:28;6.33;;;3.20;;
15474;SDS011;7839;50.462;9.678;2023-10-13T10:32:14;4.70;;;3.40;;
15474;SDS011;7839;50.462;9.678;2023-10-13T10:38:55;5.20;;;3.20;;
15474;SDS011;7839;50.462;9.678;2023-10-13T10:45:45;5.75;;;3.65;;
15474;SDS011;7839;50.462;9.678;2023-10-13T10:52:26;7.80;;;3.78;;
15474;SDS011;7839;50.462;9.678;2023-10-13T10:59:07;6.70;;;4.05;;
15474;SDS011;7839;50.462;9.678;2023-10-13T11:05:55;6.95;;;4.32;;
15474;SDS011;7839;50.462;9.678;2023-10-13T11:12:35;7.63;;;3.67;;
15474;SDS011;7839;50.462;9.678;2023-10-13T11:19:15;5.23;;;3.70;;
15474;SDS011;7839;50.462;9.678;2023-10-13T11:25:58;7.55;;;3.97;;
15474;SDS011;7839;50.462;9.678;2023-10-13T11:32:39;6.13;;;3.88;;
15474;SDS011;7839;50.462;9.678;2023-10-13T11:39:21;5.32;;;3.63;;
15474;SDS011;7839;50.462;9.678;2023-10-13T11:46:13;6.33;;;4.00;;
15474;SDS011;7839;50.462;9.678;2023-10-13T11:52:55;5.00;;;3.80;;
15474;SDS011;7839;50.462;9.678;2023-10-13T11:59:35;7.72;;;3.80;;
15474;SDS011;7839;50.462;9.678;2023-10-13T12:06:20;6.80;;;4.30;;
15474;SDS011;7839;50.462;9.678;2023-10-13T12:13:16;6.70;;;4.10;;
15474;SDS011;7839;50.462;9.678;2023-10-13T12:19:57;5.53;;;4.37;;
15474;SDS011;7839;50.462;9.678;2023-10-13T12:26:38;5.13;;;4.03;;
15474;SDS011;7839;50.462;9.678;2023-10-13T12:33:21;5.55;;;3.75;;
15474;SDS011;7839;50.462;9.678;2023-10-13T12:40:05;4.97;;;4.05;;
15474;SDS011;7839;50.462;9.678;2023-10-13T12:47:04;4.70;;;4.17;;
15474;SDS011;7839;50.462;9.678;2023-10-13T12:54:03;4.35;;;3.88;;
15474;SDS011;7839;50.462;9.678;2023-10-13T13:01:00;6.00;;;4.18;;
15474;SDS011;7839;50.462;9.678;2023-10-13T13:07:46;4.75;;;3.78;;
15474;SDS011;7839;50.462;9.678;2023-10-13T13:14:35;5.47;;;3.78;;
15474;SDS011;7839;50.462;9.678;2023-10-13T13:21:15;4.05;;;3.65;;
15474;SDS011;7839;50.462;9.678;2023-10-13T13:28:01;5.30;;;4.38;;
15474;SDS011;7839;50.462;9.678;2023-10-13T13:34:45;4.40;;;4.00;;
15474;SDS011;7839;50.462;9.678;2023-10-13T13:41:34;5.18;;;3.60;;
15474;SDS011;7839;50.462;9.678;2023-10-13T13:48:14;5.35;;;3.97;;
15474;SDS011;7839;50.462;9.678;2023-10-13T13:54:55;6.13;;;3.65;;
15474;SDS011;7839;50.462;9.678;2023-10-13T14:01:40;4.72;;;3.42;;
15474;SDS011;7839;50.462;9.678;2023-10-13T14:08:20;5.40;;;4.05;;
15474;SDS011;7839;50.462;9.678;2023-10-13T14:15:02;5.15;;;4.30;;
15474;SDS011;7839;50.462;9.678;2023-10-13T14:21:42;4.00;;;3.35;;
15474;SDS011;7839;50.462;9.678;2023-10-13T14:28:23;5.40;;;4.40;;
15474;SDS011;7839;50.462;9.678;2023-10-13T14:35:03;5.63;;;3.80;;
15474;SDS011;7839;50.462;9.678;2023-10-13T14:41:54;4.20;;;3.80;;
15474;SDS011;7839;50.462;9.678;2023-10-13T14:48:34;6.50;;;3.92;;
15474;SDS011;7839;50.462;9.678;2023-10-13T14:55:18;3.70;;;3.40;;
15474;SDS011;7839;50.462;9.678;2023-10-13T15:01:59;4.28;;;3.30;;
15474;SDS011;7839;50.462;9.678;2023-10-13T15:08:41;4.50;;;3.50;;
15474;SDS011;7839;50.462;9.678;2023-10-13T15:15:25;4.55;;;3.83;;
15474;SDS011;7839;50.462;9.678;2023-10-13T15:22:06;4.28;;;3.80;;
15474;SDS011;7839;50.462;9.678;2023-10-13T15:28:46;4.63;;;3.45;;
15474;SDS011;7839;50.462;9.678;2023-10-13T15:35:29;4.30;;;3.72;;
15474;SDS011;7839;50.462;9.678;2023-10-13T15:42:09;4.85;;;3.97;;
15474;SDS011;7839;50.462;9.678;2023-10-13T15:48:53;4.22;;;3.50;;
15474;SDS011;7839;50.462;9.678;2023-10-13T15:55:36;3.80;;;3.50;;
15474;SDS011;7839;50.462;9.678;2023-10-13T16:02:17;4.57;;;3.47;;
15474;SDS011;7839;50.462;9.678;2023-10-13T16:09:01;3.70;;;3.30;;
15474;SDS011;7839;50.462;9.678;2023-10-13T16:15:42;5.07;;;3.20;;
15474;SDS011;7839;50.462;9.678;2023-10-13T16:22:23;3.95;;;3.55;;
15474;SDS011;7839;50.462;9.678;2023-10-13T16:29:03;4.03;;;3.65;;
15474;SDS011;7839;50.462;9.678;2023-10-13T16:35:43;4.47;;;3.75;;
15474;SDS011;7839;50.462;9.678;2023-10-13T16:42:25;4.90;;;3.70;;
15474;SDS011;7839;50.462;9.678;2023-10-13T16:49:06;4.30;;;3.75;;
15474;SDS011;7839;50.462;9.678;2023-10-13T16:55:47;4.30;;;3.90;;
15474;SDS011;7839;50.462;9.678;2023-10-13T17:02:27;5.45;;;3.85;;
15474;SDS011;7839;50.462;9.678;2023-10-13T17:09:07;4.57;;;3.67;;
15474;SDS011;7839;50.462;9.678;2023-10-13T17:15:51;5.63;;;3.97;;
15474;SDS011;7839;50.462;9.678;2023-10-13T17:22:31;3.92;;;3.60;;
15474;SDS011;7839;50.462;9.678;2023-10-13T17:29:13;3.67;;;3.20;;
15474;SDS011;7839;50.462;9.678;2023-10-13T17:35:53;7.28;;;4.38;;
15474;SDS011;7839;50.462;9.678;2023-10-13T17:42:34;3.95;;;3.55;;
15474;SDS011;7839;50.462;9.678;2023-10-13T17:49:15;3.63;;;3.33;;
15474;SDS011;7839;50.462;9.678;2023-10-13T17:56:01;4.20;;;3.80;;
15474;SDS011;7839;50.462;9.678;2023-10-13T18:02:41;3.83;;;3.53;;
15474;SDS011;7839;50.462;9.678;2023-10-13T18:09:22;3.50;;;3.20;;
15474;SDS011;7839;50.462;9.678;2023-10-13T18:16:10;4.15;;;3.17;;
15474;SDS011;7839;50.462;9.678;2023-10-13T18:22:51;4.72;;;3.95;;
15474;SDS011;7839;50.462;9.678;2023-10-13T18:29:33;5.95;;;3.22;;
15474;SDS011;7839;50.462;9.678;2023-10-13T18:36:14;4.45;;;3.65;;
15474;SDS011;7839;50.462;9.678;2023-10-13T18:42:54;5.22;;;3.13;;
15474;SDS011;7839;50.462;9.678;2023-10-13T18:49:36;4.50;;;3.20;;
15474;SDS011;7839;50.462;9.678;2023-10-13T18:56:19;3.50;;;3.20;;
15474;SDS011;7839;50.462;9.678;2023-10-13T19:03:03;3.45;;;3.15;;
15474;SDS011;7839;50.462;9.678;2023-10-13T19:09:45;3.65;;;3.35;;
15474;SDS011;7839;50.462;9.678;2023-10-13T19:16:25;8.00;;;3.47;;
15474;SDS011;7839;50.462;9.678;2023-10-13T19:23:05;5.10;;;3.60;;
15474;SDS011;7839;50.462;9.678;2023-10-13T19:29:46;7.35;;;3.03;;
15474;SDS011;7839;50.462;9.678;2023-10-13T19:36:26;3.80;;;3.03;;
15474;SDS011;7839;50.462;9.678;2023-10-13T19:43:06;3.85;;;2.53;;
15474;SDS011;7839;50.462;9.678;2023-10-13T19:49:51;6.63;;;3.10;;
15474;SDS011;7839;50.462;9.678;2023-10-13T19:56:31;4.53;;;3.03;;
15474;SDS011;7839;50.462;9.678;2023-10-13T20:03:12;3.33;;;2.92;;
15474;SDS011;7839;50.462;9.678;2023-10-13T20:09:53;4.93;;;2.75;;
15474;SDS011;7839;50.462;9.678;2023-10-13T20:16:34;5.22;;;2.90;;
15474;SDS011;7839;50.462;9.678;2023-10-13T20:23:14;4.43;;;2.97;;
15474;SDS011;7839;50.462;9.678;2023-10-13T20:29:54;3.33;;;2.60;;
15474;SDS011;7839;50.462;9.678;2023-10-13T20:36:36;5.60;;;2.83;;
15474;SDS011;7839;50.462;9.678;2023-10-13T20:43:18;3.20;;;2.53;;
15474;SDS011;7839;50.462;9.678;2023-10-13T20:49:58;3.88;;;2.90;;
15474;SDS011;7839;50.462;9.678;2023-10-13T20:56:38;3.42;;;2.65;;
15474;SDS011;7839;50.462;9.678;2023-10-13T21:03:19;3.22;;;2.38;;
15474;SDS011;7839;50.462;9.678;2023-10-13T21:10:00;4.53;;;2.20;;
15474;SDS011;7839;50.462;9.678;2023-10-13T21:16:40;3.75;;;2.05;;
15474;SDS011;7839;50.462;9.678;2023-10-13T21:23:23;5.07;;;2.50;;
15474;SDS011;7839;50.462;9.678;2023-10-13T21:30:03;3.97;;;2.50;;
15474;SDS011;7839;50.462;9.678;2023-10-13T21:36:47;4.03;;;2.40;;
15474;SDS011;7839;50.462;9.678;2023-10-13T21:43:27;4.47;;;2.15;;
15474;SDS011;7839;50.462;9.678;2023-10-13T21:50:08;3.28;;;2.30;;
15474;SDS011;7839;50.462;9.678;2023-10-13T21:56:56;3.72;;;2.33;;
15474;SDS011;7839;50.462;9.678;2023-10-13T22:03:36;3.35;;;2.35;;
15474;SDS011;7839;50.462;9.678;2023-10-13T22:10:17;2.25;;;1.92;;
15474;SDS011;7839;50.462;9.678;2023-10-13T22:16:57;4.00;;;2.28;;
15474;SDS011;7839;50.462;9.678;2023-10-13T22:23:38;6.63;;;2.40;;
15474;SDS011;7839;50.462;9.678;2023-10-13T22:30:22;2.92;;;2.40;;
15474;SDS011;7839;50.462;9.678;2023-10-13T22:37:02;3.58;;;2.42;;
15474;SDS011;7839;50.462;9.678;2023-10-13T22:43:42;3.50;;;2.72;;
15474;SDS011;7839;50.462;9.678;2023-10-13T22:50:23;2.97;;;2.67;;
15474;SDS011;7839;50.462;9.678;2023-10-13T22:57:04;4.22;;;2.65;;
15474;SDS011;7839;50.462;9.678;2023-10-13T23:03:45;2.72;;;2.33;;
15474;SDS011;7839;50.462;9.678;2023-10-13T23:10:37;2.58;;;2.15;;
15474;SDS011;7839;50.462;9.678;2023-10-13T23:17:26;3.67;;;2.83;;
15474;SDS011;7839;50.462;9.678;2023-10-13T23:24:09;4.68;;;3.13;;
15474;SDS011;7839;50.462;9.678;2023-10-13T23:30:51;3.63;;;2.85;;
15474;SDS011;7839;50.462;9.678;2023-10-13T23:37:32;4.87;;;3.30;;
15474;SDS011;7839;50.462;9.678;2023-10-13T23:44:18;3.47;;;2.90;;
15474;SDS011;7839;50.462;9.678;2023-10-13T23:50:59;3.93;;;3.30;;
15474;SDS011;7839;50.462;9.678;2023-10-13T23:57:39;5.65;;;3.20;;
